Time,TemperatureF,DewpointF,PressureIn,WindDirection,WindDirectionDegrees,WindSpeedMPH,WindSpeedGustMPH,Humidity,HourlyPrecipIn,Conditions,Clouds,dailyrainin,SoftwareType,DateUTC
2013-02-12 00:14:00,46.0,45.0,29.92,ENE,65,0.0,1.0,97,0.00,,,0.13,weatherlink.com 1.10,2013-02-12 05:14:00,
2013-02-12 00:29:00,45.4,45.0,29.92,ENE,77,2.0,3.0,97,0.00,,,0.13,weatherlink.com 1.10,2013-02-12 05:29:00,
2013-02-12 00:44:00,45.0,44.0,29.93,ENE,63,0.0,2.0,97,0.00,,,0.13,weatherlink.com 1.10,2013-02-12 05:44:00,
2013-02-12 00:59:00,44.5,44.0,29.93,ENE,63,1.0,2.0,97,0.00,,,0.13,weatherlink.com 1.10,2013-02-12 05:59:00,
2013-02-12 01:14:00,43.7,43.0,29.93,ENE,57,0.0,3.0,97,0.00,,,0.00,weatherlink.com 1.10,2013-02-12 06:14:00,
2013-02-12 01:29:00,42.8,42.0,29.93,NE,40,0.0,3.0,96,0.00,,,0.00,weatherlink.com 1.10,2013-02-12 06:29:00,
2013-02-12 01:44:00,42.5,41.0,29.92,NE,36,0.0,5.0,95,0.00,,,0.00,weatherlink.com 1.10,2013-02-12 06:44:00,
2013-02-12 02:00:00,41.7,40.0,29.92,NE,36,0.0,3.0,94,0.00,,,0.00,weatherlink.com 1.10,2013-02-12 07:00:00,
2013-02-12 02:14:00,40.8,40.0,29.93,NE,36,0.0,3.0,95,0.00,,,0.00,weatherlink.com 1.10,2013-02-12 07:14:00,
2013-02-12 02:29:00,40.4,39.0,29.93,NE,36,0.0,3.0,95,0.00,,,0.00,weatherlink.com 1.10,2013-02-12 07:29:00,
2013-02-12 02:44:00,41.5,40.0,29.93,NE,40,0.0,4.0,95,0.00,,,0.00,weatherlink.com 1.10,2013-02-12 07:44:00,
2013-02-12 02:59:00,41.6,40.0,29.94,NNE,28,1.0,3.0,93,0.00,,,0.00,weatherlink.com 1.10,2013-02-12 07:59:00,
2013-02-12 03:14:00,41.7,40.0,29.94,NNE,13,2.0,4.0,93,0.00,,,0.00,weatherlink.com 1.10,2013-02-12 08:14:00,
2013-02-12 03:29:00,42.0,39.0,29.92,NNE,26,4.0,5.0,90,0.00,,,0.00,weatherlink.com 1.10,2013-02-12 08:29:00,
2013-02-12 03:44:00,42.3,39.0,29.92,NNE,22,0.0,2.0,88,0.00,,,0.00,weatherlink.com 1.10,2013-02-12 08:44:00,
2013-02-12 04:00:00,42.6,38.0,29.92,NNE,22,1.0,2.0,84,0.00,,,0.00,weatherlink.com 1.10,2013-02-12 09:00:00,
2013-02-12 04:14:00,46.0,33.0,29.93,North,5,3.0,7.0,62,0.00,,,0.00,weatherlink.com 1.10,2013-02-12 09:14:00,
2013-02-12 04:30:00,47.1,31.0,29.92,NNE,15,6.0,7.0,55,0.00,,,0.00,weatherlink.com 1.10,2013-02-12 09:30:00,
2013-02-12 04:45:00,46.9,31.0,29.95,NE,38,1.0,5.0,54,0.00,,,0.00,weatherlink.com 1.10,2013-02-12 09:45:00,
2013-02-12 05:00:00,46.4,30.0,29.94,ENE,71,2.0,4.0,53,0.00,,,0.00,weatherlink.com 1.10,2013-02-12 10:00:00,
2013-02-12 05:15:00,45.4,31.0,29.95,NE,48,1.0,4.0,57,0.00,,,0.00,weatherlink.com 1.10,2013-02-12 10:15:00,
2013-02-12 05:30:00,45.3,29.0,29.94,ENE,76,2.0,5.0,54,0.00,,,0.00,weatherlink.com 1.10,2013-02-12 10:30:00,
2013-02-12 05:45:00,45.2,28.0,29.94,NNE,21,2.0,6.0,52,0.00,,,0.00,weatherlink.com 1.10,2013-02-12 10:45:00,
2013-02-12 06:00:00,45.8,29.0,29.95,NNE,26,3.0,7.0,52,0.00,,,0.00,weatherlink.com 1.10,2013-02-12 11:00:00,
2013-02-12 06:15:00,45.9,27.0,29.95,ESE,102,4.0,5.0,47,0.00,,,0.00,weatherlink.com 1.10,2013-02-12 11:15:00,
2013-02-12 06:30:00,45.5,27.0,29.95,NE,34,2.0,5.0,49,0.00,,,0.00,weatherlink.com 1.10,2013-02-12 11:30:00,
2013-02-12 06:45:00,45.1,26.0,29.95,East,81,1.0,8.0,48,0.00,,,0.00,weatherlink.com 1.10,2013-02-12 11:45:00,
2013-02-12 07:00:00,45.2,27.0,29.96,East,94,3.0,5.0,50,0.00,,,0.00,weatherlink.com 1.10,2013-02-12 12:00:00,
2013-02-12 07:15:00,45.3,26.0,29.95,ENE,70,2.0,6.0,47,0.00,,,0.00,weatherlink.com 1.10,2013-02-12 12:15:00,
2013-02-12 07:30:00,45.1,26.0,29.95,NNE,25,3.0,6.0,48,0.00,,,0.00,weatherlink.com 1.10,2013-02-12 12:30:00,
2013-02-12 07:45:00,45.6,26.0,29.97,North,5,3.0,5.0,46,0.00,,,0.00,weatherlink.com 1.10,2013-02-12 12:45:00,
2013-02-12 08:00:00,46.5,27.0,29.99,NNE,15,3.0,9.0,47,0.00,,,0.00,weatherlink.com 1.10,2013-02-12 13:00:00,
2013-02-12 08:15:00,45.7,26.0,29.98,NNE,12,3.0,7.0,47,0.00,,,0.00,weatherlink.com 1.10,2013-02-12 13:15:00,
2013-02-12 08:30:00,46.4,26.0,29.99,NE,36,4.0,6.0,46,0.00,,,0.00,weatherlink.com 1.10,2013-02-12 13:30:00,
2013-02-12 08:45:00,47.5,28.0,30.00,ENE,59,3.0,6.0,47,0.00,,,0.00,weatherlink.com 1.10,2013-02-12 13:45:00,
2013-02-12 09:00:00,48.0,28.0,30.00,NNE,29,0.0,7.0,47,0.00,,,0.00,weatherlink.com 1.10,2013-02-12 14:00:00,
2013-02-12 09:15:00,49.1,29.0,30.00,North,9,2.0,6.0,46,0.00,,,0.00,weatherlink.com 1.10,2013-02-12 14:15:00,
2013-02-12 09:30:00,51.0,31.0,30.01,North,5,7.0,7.0,46,0.00,,,0.00,weatherlink.com 1.10,2013-02-12 14:30:00,
2013-02-12 09:46:00,52.0,28.0,30.01,NNE,30,7.0,9.0,39,0.00,,,0.00,weatherlink.com 1.10,2013-02-12 14:46:00,
2013-02-12 10:00:00,51.3,28.0,30.01,NNW,346,3.0,6.0,41,0.00,,,0.00,weatherlink.com 1.10,2013-02-12 15:00:00,
2013-02-12 10:15:00,52.3,30.0,30.00,NW,305,3.0,6.0,43,0.00,,,0.00,weatherlink.com 1.10,2013-02-12 15:15:00,
2013-02-12 10:30:00,52.8,26.0,30.00,NW,322,3.0,10.0,35,0.00,,,0.00,weatherlink.com 1.10,2013-02-12 15:30:00,
2013-02-12 10:45:00,53.8,28.0,29.98,NNW,327,3.0,7.0,37,0.00,,,0.00,weatherlink.com 1.10,2013-02-12 15:45:00,
2013-02-12 11:00:00,54.9,25.0,29.98,NE,49,3.0,5.0,32,0.00,,,0.00,weatherlink.com 1.10,2013-02-12 16:00:00,
2013-02-12 11:15:00,55.3,26.0,29.98,NNW,348,3.0,7.0,32,0.00,,,0.00,weatherlink.com 1.10,2013-02-12 16:15:00,
2013-02-12 11:30:00,55.2,25.0,29.96,WSW,249,4.0,7.0,31,0.00,,,0.00,weatherlink.com 1.10,2013-02-12 16:30:00,
2013-02-12 11:45:00,56.0,26.0,29.97,WNW,288,3.0,5.0,31,0.00,,,0.00,weatherlink.com 1.10,2013-02-12 16:45:00,
2013-02-12 12:01:00,56.5,27.0,29.97,SW,236,3.0,6.0,32,0.00,,,0.00,weatherlink.com 1.10,2013-02-12 17:01:00,
2013-02-12 12:16:00,57.2,25.0,29.95,WSW,252,5.0,6.0,29,0.00,,,0.00,weatherlink.com 1.10,2013-02-12 17:16:00,
2013-02-12 12:31:00,57.5,26.0,29.95,SW,234,3.0,6.0,30,0.00,,,0.00,weatherlink.com 1.10,2013-02-12 17:31:00,
2013-02-12 12:46:00,57.2,29.0,29.95,West,273,6.0,8.0,34,0.00,,,0.00,weatherlink.com 1.10,2013-02-12 17:46:00,
2013-02-12 13:04:00,57.1,30.0,29.94,WSW,242,2.0,7.0,35,0.00,,,0.00,weatherlink.com 1.10,2013-02-12 18:04:00,
2013-02-12 13:16:00,56.9,28.0,29.93,SSW,194,3.0,7.0,33,0.00,,,0.00,weatherlink.com 1.10,2013-02-12 18:16:00,
2013-02-12 13:31:00,57.1,30.0,29.93,West,270,5.0,6.0,36,0.00,,,0.00,weatherlink.com 1.10,2013-02-12 18:31:00,
2013-02-12 13:46:00,56.6,29.0,29.92,SW,219,0.0,6.0,35,0.00,,,0.00,weatherlink.com 1.10,2013-02-12 18:46:00,
2013-02-12 14:01:00,56.2,29.0,29.92,West,259,4.0,8.0,36,0.00,,,0.00,weatherlink.com 1.10,2013-02-12 19:01:00,
2013-02-12 14:16:00,56.4,30.0,29.93,West,259,2.0,6.0,36,0.00,,,0.00,weatherlink.com 1.10,2013-02-12 19:16:00,
2013-02-12 14:31:00,56.5,30.0,29.92,South,178,3.0,5.0,36,0.00,,,0.00,weatherlink.com 1.10,2013-02-12 19:31:00,
2013-02-12 14:46:00,56.2,29.0,29.91,South,184,3.0,5.0,35,0.00,,,0.00,weatherlink.com 1.10,2013-02-12 19:46:00,
2013-02-12 15:01:00,56.1,30.0,29.91,WSW,258,1.0,5.0,37,0.00,,,0.00,weatherlink.com 1.10,2013-02-12 20:01:00,
2013-02-12 15:16:00,55.9,28.0,29.91,SSW,197,2.0,4.0,35,0.00,,,0.00,weatherlink.com 1.10,2013-02-12 20:16:00,
2013-02-12 15:31:00,55.5,32.0,29.91,West,281,1.0,3.0,41,0.00,,,0.00,weatherlink.com 1.10,2013-02-12 20:31:00,
2013-02-12 15:46:00,55.3,31.0,29.91,West,281,1.0,2.0,39,0.00,,,0.00,weatherlink.com 1.10,2013-02-12 20:46:00,
2013-02-12 16:01:00,55.4,31.0,29.91,WSW,251,1.0,3.0,39,0.00,,,0.00,weatherlink.com 1.10,2013-02-12 21:01:00,
2013-02-12 16:16:00,55.2,36.0,29.91,WSW,251,1.0,1.0,49,0.00,,,0.00,weatherlink.com 1.10,2013-02-12 21:16:00,
2013-02-12 16:31:00,54.2,34.0,29.91,WSW,251,0.0,1.0,47,0.00,,,0.00,weatherlink.com 1.10,2013-02-12 21:31:00,
2013-02-12 16:46:00,53.7,35.0,29.90,WSW,251,0.0,1.0,49,0.00,,,0.00,weatherlink.com 1.10,2013-02-12 21:46:00,
2013-02-12 17:01:00,53.2,34.0,29.89,West,278,1.0,2.0,49,0.00,,,0.00,weatherlink.com 1.10,2013-02-12 22:01:00,
2013-02-12 17:16:00,52.7,38.0,29.88,West,278,0.0,1.0,57,0.00,,,0.00,weatherlink.com 1.10,2013-02-12 22:16:00,
2013-02-12 17:31:00,52.5,38.0,29.88,West,278,2.0,2.0,59,0.00,,,0.00,weatherlink.com 1.10,2013-02-12 22:31:00,
2013-02-12 17:46:00,52.0,38.0,29.88,WNW,296,1.0,2.0,59,0.00,,,0.00,weatherlink.com 1.10,2013-02-12 22:46:00,
2013-02-12 18:01:00,51.4,39.0,29.88,WNW,298,0.0,1.0,62,0.00,,,0.00,weatherlink.com 1.10,2013-02-12 23:01:00,
2013-02-12 18:16:00,50.9,38.0,29.85,WNW,298,0.0,2.0,62,0.00,,,0.00,weatherlink.com 1.10,2013-02-12 23:16:00,
2013-02-12 18:31:00,49.6,40.0,29.84,NNE,22,0.0,4.0,70,0.00,,,0.00,weatherlink.com 1.10,2013-02-12 23:31:00,
2013-02-12 18:46:00,48.4,39.0,29.82,NNE,21,4.0,4.0,71,0.00,,,0.00,weatherlink.com 1.10,2013-02-12 23:46:00,
2013-02-12 19:01:00,49.4,36.0,29.83,NE,56,0.0,5.0,60,0.00,,,0.00,weatherlink.com 1.10,2013-02-13 00:01:00,
2013-02-12 19:16:00,49.6,39.0,29.88,ENE,62,0.0,2.0,66,0.00,,,0.00,weatherlink.com 1.10,2013-02-13 00:16:00,
2013-02-12 19:31:00,50.1,36.0,29.89,South,173,2.0,3.0,58,0.00,,,0.00,weatherlink.com 1.10,2013-02-13 00:31:00,
2013-02-12 19:46:00,49.2,39.0,29.89,South,173,1.0,3.0,69,0.00,,,0.00,weatherlink.com 1.10,2013-02-13 00:46:00,
2013-02-12 20:01:00,48.0,41.0,29.89,NE,48,3.0,4.0,78,0.00,,,0.00,weatherlink.com 1.10,2013-02-13 01:01:00,
2013-02-12 20:16:00,47.6,39.0,29.89,NNE,13,1.0,4.0,71,0.00,,,0.00,weatherlink.com 1.10,2013-02-13 01:16:00,
2013-02-12 20:31:00,46.8,41.0,29.91,NNE,13,1.0,2.0,80,0.00,,,0.00,weatherlink.com 1.10,2013-02-13 01:31:00,
2013-02-12 20:46:00,46.3,41.0,29.89,ESE,115,3.0,5.0,81,0.00,,,0.00,weatherlink.com 1.10,2013-02-13 01:46:00,
2013-02-12 21:01:00,45.7,42.0,29.90,NNW,343,1.0,4.0,86,0.00,,,0.00,weatherlink.com 1.10,2013-02-13 02:01:00,
2013-02-12 21:16:00,45.1,42.0,29.91,NNW,343,1.0,2.0,89,0.00,,,0.00,weatherlink.com 1.10,2013-02-13 02:16:00,
2013-02-12 21:31:00,44.9,42.0,29.91,ESE,105,2.0,4.0,90,0.00,,,0.00,weatherlink.com 1.10,2013-02-13 02:31:00,
2013-02-12 21:46:00,45.0,42.0,29.89,NE,56,2.0,3.0,89,0.00,,,0.00,weatherlink.com 1.10,2013-02-13 02:46:00,
2013-02-12 22:01:00,45.1,42.0,29.89,NE,36,3.0,4.0,87,0.00,,,0.00,weatherlink.com 1.10,2013-02-13 03:01:00,
2013-02-12 22:16:00,45.4,41.0,29.87,NE,36,2.0,4.0,84,0.00,,,0.00,weatherlink.com 1.10,2013-02-13 03:16:00,
2013-02-12 22:34:00,45.6,41.0,29.89,NE,36,0.0,1.0,85,0.00,,,0.00,weatherlink.com 1.10,2013-02-13 03:34:00,
2013-02-12 22:47:00,45.2,41.0,29.88,NE,36,0.0,2.0,86,0.00,,,0.00,weatherlink.com 1.10,2013-02-13 03:47:00,
2013-02-12 23:01:00,45.7,40.0,29.86,NNE,23,5.0,5.0,79,0.00,,,0.00,weatherlink.com 1.10,2013-02-13 04:01:00,
2013-02-12 23:16:00,47.1,39.0,29.85,ESE,109,2.0,6.0,73,0.00,,,0.00,weatherlink.com 1.10,2013-02-13 04:16:00,
2013-02-12 23:32:00,46.9,40.0,29.84,ENE,76,0.0,2.0,76,0.00,,,0.00,weatherlink.com 1.10,2013-02-13 04:32:00,
2013-02-12 23:46:00,46.5,40.0,29.86,North,9,2.0,4.0,77,0.00,,,0.00,weatherlink.com 1.10,2013-02-13 04:46:00,